createdAt,value
2023-01-19T00:01:59.037Z,20.05
2023-01-19T00:05:04.004Z,17.30
2023-01-19T00:08:14.880Z,15.83
2023-01-19T00:11:18.481Z,16.57
2023-01-19T00:14:21.042Z,12.20
2023-01-19T00:17:23.501Z,10.98
2023-01-19T00:20:25.961Z,11.48
2023-01-19T00:23:28.544Z,13.07
2023-01-19T00:26:31.097Z,10.95
2023-01-19T00:29:34.353Z,11.38
2023-01-19T00:32:36.777Z,11.50
2023-01-19T00:35:39.492Z,12.40
2023-01-19T00:38:42.001Z,11.83
2023-01-19T00:42:03.177Z,12.13
2023-01-19T00:45:09.277Z,11.77
2023-01-19T00:48:11.912Z,9.77
2023-01-19T00:51:14.487Z,10.47
2023-01-19T00:54:17.020Z,11.07
2023-01-19T00:57:19.472Z,8.65
2023-01-19T01:00:22.591Z,8.63
2023-01-19T01:03:28.176Z,8.55
2023-01-19T01:06:31.028Z,8.93
2023-01-19T01:09:33.537Z,9.32
2023-01-19T01:12:37.327Z,8.63
2023-01-19T01:15:40.138Z,8.32
2023-01-19T01:18:43.390Z,8.00
2023-01-19T01:21:45.838Z,7.63
2023-01-19T01:24:48.296Z,7.40
2023-01-19T01:27:51.479Z,7.03
2023-01-19T01:30:55.693Z,6.25
2023-01-19T01:33:58.167Z,8.50
2023-01-19T01:37:00.612Z,6.93
2023-01-19T01:40:04.867Z,6.28
2023-01-19T01:43:13.589Z,7.18
2023-01-19T01:46:17.583Z,5.57
2023-01-19T01:49:20.175Z,5.88
2023-01-19T01:52:26.361Z,5.82
2023-01-19T01:55:30.598Z,6.72
2023-01-19T01:58:34.333Z,5.50
2023-01-19T02:01:55.760Z,4.67
2023-01-19T02:05:04.259Z,6.43
2023-01-19T02:08:33.415Z,4.75
2023-01-19T02:11:55.150Z,6.28
2023-01-19T02:14:57.692Z,4.97
2023-01-19T02:18:00.273Z,4.72
2023-01-19T02:21:11.615Z,5.28
2023-01-19T02:24:14.690Z,4.07
2023-01-19T02:27:17.379Z,3.58
2023-01-19T02:30:20.090Z,4.90
2023-01-19T02:33:22.755Z,4.53
2023-01-19T02:36:30.290Z,3.97
2023-01-19T02:39:50.850Z,3.90
2023-01-19T02:42:58.773Z,3.45
2023-01-19T02:46:01.384Z,3.47
2023-01-19T02:49:03.989Z,2.73
2023-01-19T02:52:15.557Z,3.43
2023-01-19T02:55:25.593Z,3.85
2023-01-19T02:58:39.563Z,2.80
2023-01-19T03:02:09.992Z,3.30
2023-01-19T03:05:30.760Z,2.75
2023-01-19T03:08:53.085Z,3.05
2023-01-19T03:12:09.647Z,2.55
2023-01-19T03:15:23.045Z,2.63
2023-01-19T03:18:29.793Z,2.53
2023-01-19T03:21:35.766Z,2.85
2023-01-19T03:24:42.184Z,2.05
2023-01-19T03:27:47.199Z,2.90
2023-01-19T03:31:01.746Z,2.40
2023-01-19T03:34:08.045Z,2.28
2023-01-19T03:37:14.262Z,2.38
2023-01-19T03:40:20.409Z,2.67
2023-01-19T03:43:25.542Z,2.08
2023-01-19T03:46:28.802Z,2.67
2023-01-19T03:49:31.887Z,2.90
2023-01-19T03:52:34.631Z,1.97
2023-01-19T03:55:39.065Z,2.13
2023-01-19T03:58:42.408Z,2.28
2023-01-19T04:01:45.299Z,3.15
2023-01-19T04:04:47.868Z,2.20
2023-01-19T04:07:52.157Z,1.98
2023-01-19T04:10:54.736Z,2.55
2023-01-19T04:13:57.294Z,2.50
2023-01-19T04:17:00.190Z,1.90
2023-01-19T04:20:03.158Z,2.40
2023-01-19T04:23:05.745Z,1.90
2023-01-19T04:26:09.183Z,1.92
2023-01-19T04:29:11.643Z,2.17
2023-01-19T04:32:14.815Z,2.03
2023-01-19T04:35:17.484Z,2.38
2023-01-19T04:38:20.342Z,2.20
2023-01-19T04:41:22.875Z,1.60
2023-01-19T04:44:25.268Z,1.63
2023-01-19T04:47:27.711Z,1.65
2023-01-19T04:50:30.835Z,2.90
2023-01-19T04:53:33.237Z,1.58
2023-01-19T04:56:36.042Z,1.27
2023-01-19T04:59:38.425Z,0.88
2023-01-19T05:02:44.239Z,0.90
2023-01-19T05:05:46.859Z,1.23
2023-01-19T05:08:49.251Z,2.45
2023-01-19T05:11:51.706Z,0.98
2023-01-19T05:14:54.170Z,0.73
2023-01-19T05:17:58.147Z,2.17
2023-01-19T05:21:02.349Z,0.77
2023-01-19T05:24:04.972Z,0.97
2023-01-19T05:27:07.559Z,0.75
2023-01-19T05:30:11.017Z,0.47
2023-01-19T05:33:13.539Z,0.30
2023-01-19T05:36:16.059Z,0.30
2023-01-19T05:39:18.926Z,0.60
2023-01-19T05:42:21.388Z,0.93
2023-01-19T05:45:23.809Z,1.35
2023-01-19T05:48:26.502Z,0.60
2023-01-19T05:51:35.356Z,0.50
2023-01-19T05:54:40.347Z,1.10
2023-01-19T05:57:43.367Z,0.60
2023-01-19T06:00:45.831Z,1.40
2023-01-19T06:03:48.934Z,2.33
2023-01-19T06:06:51.789Z,1.80
2023-01-19T06:09:54.251Z,0.73
2023-01-19T06:12:57.154Z,0.87
2023-01-19T06:16:01.463Z,1.90
2023-01-19T06:19:04.457Z,0.70
2023-01-19T06:22:06.962Z,1.95
2023-01-19T06:25:10.174Z,1.08
2023-01-19T06:28:12.664Z,1.47
2023-01-19T06:31:15.290Z,0.63
2023-01-19T06:34:19.072Z,1.55
2023-01-19T06:37:21.651Z,0.85
2023-01-19T06:40:24.296Z,0.87
2023-01-19T06:43:27.136Z,1.07
2023-01-19T06:46:29.994Z,0.65
2023-01-19T06:49:32.863Z,1.05
2023-01-19T06:52:42.224Z,0.95
2023-01-19T06:55:44.780Z,1.27
2023-01-19T06:58:48.599Z,0.65
2023-01-19T07:01:51.275Z,1.08
2023-01-19T07:04:55.184Z,0.77
2023-01-19T07:07:57.940Z,0.60
2023-01-19T07:11:26.542Z,1.30
2023-01-19T07:14:33.566Z,0.75
2023-01-19T07:17:36.092Z,0.85
2023-01-19T07:20:38.634Z,1.27
2023-01-19T07:23:41.289Z,1.98
2023-01-19T07:26:43.882Z,1.30
2023-01-19T07:29:46.314Z,1.65
2023-01-19T07:32:48.869Z,2.20
2023-01-19T07:35:52.611Z,1.63
2023-01-19T07:38:55.133Z,1.58
2023-01-19T07:41:58.253Z,3.25
2023-01-19T07:45:01.011Z,3.65
2023-01-19T07:48:03.672Z,2.70
2023-01-19T07:51:10.421Z,1.75
2023-01-19T07:54:14.999Z,2.80
2023-01-19T07:57:17.889Z,2.33
2023-01-19T08:00:24.613Z,2.00
2023-01-19T08:03:27.335Z,1.10
2023-01-19T08:06:35.294Z,1.90
2023-01-19T08:09:37.777Z,1.80
2023-01-19T08:12:41.954Z,1.53
2023-01-19T08:15:45.028Z,2.67
2023-01-19T08:18:47.860Z,2.10
2023-01-19T08:21:50.310Z,2.03
2023-01-19T08:24:53.102Z,3.37
2023-01-19T08:27:56.620Z,3.45
2023-01-19T08:31:08.027Z,3.55
2023-01-19T08:34:17.242Z,5.47
2023-01-19T08:37:19.721Z,6.00
2023-01-19T08:40:23.080Z,4.37
2023-01-19T08:43:26.890Z,3.38
2023-01-19T08:46:29.875Z,3.35
2023-01-19T08:49:32.418Z,3.13
2023-01-19T08:52:35.667Z,3.10
2023-01-19T08:55:39.470Z,3.35
2023-01-19T08:58:43.993Z,4.78
2023-01-19T09:01:46.697Z,4.35
2023-01-19T09:04:50.180Z,4.23
2023-01-19T09:07:53.655Z,4.23
2023-01-19T09:10:56.521Z,4.00
2023-01-19T09:13:59.091Z,5.63
2023-01-19T09:17:01.603Z,4.80
2023-01-19T09:20:05.986Z,5.87
2023-01-19T09:23:14.025Z,5.68
2023-01-19T09:26:17.423Z,6.15
2023-01-19T09:29:20.092Z,4.60
2023-01-19T09:32:23.087Z,4.60
2023-01-19T09:35:26.003Z,4.43
2023-01-19T09:38:31.554Z,4.60
2023-01-19T09:41:36.425Z,4.30
2023-01-19T09:44:43.467Z,5.00
2023-01-19T09:47:48.643Z,4.85
2023-01-19T09:50:54.287Z,4.57
2023-01-19T09:54:19.390Z,4.25
2023-01-19T09:57:23.996Z,6.03
2023-01-19T10:00:28.983Z,7.13
2023-01-19T10:03:35.552Z,5.83
2023-01-19T10:06:38.151Z,7.78
2023-01-19T10:10:20.292Z,7.47
2023-01-19T10:13:31.896Z,4.65
2023-01-19T10:17:07.036Z,4.10
2023-01-19T10:20:35.167Z,3.72
2023-01-19T10:23:54.828Z,5.30
2023-01-19T10:26:57.469Z,4.38
2023-01-19T10:30:01.771Z,4.50
2023-01-19T10:33:05.127Z,4.72
2023-01-19T10:36:18.065Z,4.78
2023-01-19T10:39:21.250Z,4.93
2023-01-19T10:42:27.543Z,3.47
2023-01-19T10:45:31.762Z,5.05
2023-01-19T10:48:42.154Z,4.55
2023-01-19T10:51:49.037Z,3.25
2023-01-19T10:54:52.003Z,4.60
2023-01-19T10:57:54.840Z,4.03
2023-01-19T11:01:13.830Z,3.83
2023-01-19T11:04:27.700Z,2.30
2023-01-19T11:07:33.104Z,2.70
2023-01-19T11:10:36.233Z,2.33
2023-01-19T11:13:40.544Z,3.20
2023-01-19T11:16:47.494Z,2.78
2023-01-19T11:19:56.277Z,1.50
2023-01-19T11:23:05.351Z,2.50
2023-01-19T11:26:15.675Z,4.63
2023-01-19T11:29:24.482Z,4.03
2023-01-19T11:32:27.746Z,3.47
2023-01-19T11:35:34.031Z,3.65
2023-01-19T11:38:43.655Z,2.03
2023-01-19T11:41:51.342Z,1.85
2023-01-19T11:45:05.879Z,3.42
2023-01-19T11:48:22.549Z,2.03
2023-01-19T11:51:49.531Z,1.43
2023-01-19T11:55:06.222Z,1.40
2023-01-19T11:58:15.917Z,1.65
2023-01-19T12:01:30.079Z,1.63
2023-01-19T12:04:40.447Z,3.03
2023-01-19T12:07:45.210Z,1.50
2023-01-19T12:10:50.626Z,1.45
2023-01-19T12:13:54.322Z,1.65
2023-01-19T12:17:01.046Z,1.63
2023-01-19T12:20:13.900Z,1.87
2023-01-19T12:23:38.727Z,1.65
2023-01-19T12:26:51.314Z,3.40
2023-01-19T12:29:55.107Z,2.42
2023-01-19T12:33:34.997Z,2.33
2023-01-19T12:36:38.927Z,1.87
2023-01-19T12:39:49.045Z,2.10
2023-01-19T12:43:06.003Z,2.80
2023-01-19T12:46:31.834Z,2.67
2023-01-19T12:49:40.234Z,2.13
2023-01-19T12:52:51.752Z,3.00
2023-01-19T12:56:01.086Z,2.55
2023-01-19T12:59:05.904Z,3.25
2023-01-19T13:02:20.810Z,2.35
2023-01-19T13:05:33.136Z,1.63
2023-01-19T13:09:43.897Z,2.37
2023-01-19T13:13:16.572Z,2.40
2023-01-19T13:16:19.625Z,3.97
2023-01-19T13:19:32.465Z,3.73
2023-01-19T13:22:49.958Z,3.80
2023-01-19T13:25:58.933Z,4.90
2023-01-19T13:29:34.548Z,4.70
2023-01-19T13:32:42.308Z,3.03
2023-01-19T13:35:56.290Z,3.57
2023-01-19T13:39:18.348Z,4.03
2023-01-19T13:42:29.423Z,4.25
2023-01-19T13:45:37.064Z,4.10
2023-01-19T13:48:40.209Z,4.33
2023-01-19T13:51:42.865Z,5.65
2023-01-19T13:54:53.325Z,8.07
2023-01-19T13:58:01.613Z,6.57
2023-01-19T14:01:04.159Z,6.07
2023-01-19T14:04:23.808Z,8.25
2023-01-19T14:07:26.690Z,10.52
2023-01-19T14:10:31.373Z,11.18
2023-01-19T14:13:37.439Z,12.03
2023-01-19T14:16:40.028Z,11.93
2023-01-19T14:19:54.224Z,11.90
2023-01-19T14:22:56.816Z,12.50
2023-01-19T14:25:59.297Z,8.52
2023-01-19T14:29:27.932Z,8.33
2023-01-19T14:32:30.666Z,11.02
2023-01-19T14:35:34.724Z,8.93
2023-01-19T14:38:37.255Z,10.02
2023-01-19T14:41:52.325Z,9.57
2023-01-19T14:44:56.899Z,9.68
2023-01-19T14:48:12.117Z,8.25
2023-01-19T14:51:20.296Z,8.05
2023-01-19T14:54:34.342Z,9.77
2023-01-19T14:57:37.901Z,8.63
2023-01-19T15:00:41.983Z,8.73
2023-01-19T15:03:45.782Z,10.95
2023-01-19T15:06:48.660Z,10.77
2023-01-19T15:09:51.786Z,10.18
2023-01-19T15:12:54.943Z,10.00
2023-01-19T15:15:58.416Z,8.98
2023-01-19T15:19:01.075Z,8.97
2023-01-19T15:22:11.303Z,10.65
2023-01-19T15:25:16.062Z,11.40
2023-01-19T15:28:20.048Z,8.73
2023-01-19T15:31:24.792Z,10.10
2023-01-19T15:34:27.342Z,11.95
2023-01-19T15:37:29.803Z,12.32
2023-01-19T15:40:32.412Z,11.02
2023-01-19T15:43:34.794Z,12.67
2023-01-19T15:46:37.410Z,10.80
2023-01-19T15:49:39.879Z,14.85
2023-01-19T15:52:43.899Z,14.52
2023-01-19T15:55:51.219Z,14.43
2023-01-19T15:58:54.795Z,13.33
2023-01-19T16:01:58.103Z,16.27
2023-01-19T16:05:00.671Z,15.27
2023-01-19T16:08:03.147Z,16.73
2023-01-19T16:11:10.975Z,15.17
2023-01-19T16:14:13.506Z,16.55
2023-01-19T16:17:16.258Z,15.82
2023-01-19T16:20:18.744Z,16.90
2023-01-19T16:23:21.869Z,15.17
2023-01-19T16:26:34.206Z,17.77
2023-01-19T16:29:37.284Z,17.02
2023-01-19T16:32:39.887Z,19.40
2023-01-19T16:35:42.314Z,21.67
2023-01-19T16:38:44.809Z,19.27
2023-01-19T16:41:47.866Z,17.02
2023-01-19T16:44:50.313Z,17.07
2023-01-19T16:47:52.708Z,15.63
2023-01-19T16:51:04.306Z,16.38
2023-01-19T16:54:07.524Z,14.75
2023-01-19T16:57:11.206Z,18.00
2023-01-19T17:00:14.212Z,15.47
2023-01-19T17:03:17.775Z,12.93
2023-01-19T17:06:24.811Z,16.02
2023-01-19T17:09:27.504Z,16.23
2023-01-19T17:12:32.247Z,16.63
2023-01-19T17:15:35.356Z,16.77
2023-01-19T17:18:38.247Z,13.02
2023-01-19T17:21:40.822Z,14.70
2023-01-19T17:24:44.652Z,15.50
2023-01-19T17:27:47.201Z,13.55
2023-01-19T17:30:51.462Z,11.35
2023-01-19T17:33:54.286Z,12.38
2023-01-19T17:37:02.911Z,12.20
2023-01-19T17:40:06.403Z,12.65
2023-01-19T17:43:12.256Z,16.15
2023-01-19T17:46:15.248Z,13.50
2023-01-19T17:49:17.787Z,12.13
2023-01-19T17:52:20.907Z,12.52
2023-01-19T17:55:23.894Z,16.77
2023-01-19T17:58:26.626Z,15.40
2023-01-19T18:01:32.161Z,15.20
2023-01-19T18:04:37.909Z,11.68
2023-01-19T18:07:40.696Z,15.73
2023-01-19T18:10:43.515Z,15.47
2023-01-19T18:13:48.343Z,16.42
2023-01-19T18:16:51.035Z,16.38
2023-01-19T18:19:54.807Z,18.48
2023-01-19T18:22:57.746Z,14.07
2023-01-19T18:26:05.222Z,14.15
2023-01-19T18:29:08.727Z,14.32
2023-01-19T18:32:11.706Z,19.73
2023-01-19T18:35:14.491Z,18.10
2023-01-19T18:38:17.223Z,18.47
2023-01-19T18:41:21.435Z,15.30
2023-01-19T18:44:24.972Z,13.02
2023-01-19T18:47:28.316Z,17.00
2023-01-19T18:50:31.598Z,13.20
2023-01-19T18:53:35.014Z,12.70
2023-01-19T18:56:37.501Z,14.50
2023-01-19T18:59:43.885Z,11.50
2023-01-19T19:02:47.344Z,15.00
2023-01-19T19:05:50.441Z,15.50
2023-01-19T19:08:56.924Z,13.77
2023-01-19T19:12:00.024Z,14.93
2023-01-19T19:15:03.256Z,13.73
2023-01-19T19:18:06.146Z,13.45
2023-01-19T19:21:11.007Z,12.35
2023-01-19T19:24:13.863Z,13.50
2023-01-19T19:27:17.809Z,12.18
2023-01-19T19:30:21.292Z,12.05
2023-01-19T19:33:23.884Z,16.02
2023-01-19T19:36:28.693Z,12.83
2023-01-19T19:39:31.871Z,12.87
2023-01-19T19:42:34.767Z,11.65
2023-01-19T19:45:38.464Z,13.02
2023-01-19T19:48:42.005Z,12.60
2023-01-19T19:51:44.847Z,12.32
2023-01-19T19:54:50.937Z,11.68
2023-01-19T19:57:54.874Z,10.65
2023-01-19T20:00:57.936Z,13.47
2023-01-19T20:04:06.873Z,13.93
2023-01-19T20:07:09.522Z,11.98
2023-01-19T20:10:12.383Z,10.68
2023-01-19T20:13:17.882Z,13.03
2023-01-19T20:16:23.291Z,11.15
2023-01-19T20:19:26.633Z,9.77
2023-01-19T20:22:29.420Z,10.77
2023-01-19T20:25:33.211Z,10.63
2023-01-19T20:28:36.499Z,9.02
2023-01-19T20:31:44.573Z,11.88
2023-01-19T20:34:47.466Z,11.68
2023-01-19T20:37:49.892Z,9.93
2023-01-19T20:40:53.470Z,10.38
2023-01-19T20:43:56.200Z,11.93
2023-01-19T20:46:58.879Z,10.40
2023-01-19T20:50:02.442Z,12.27
2023-01-19T20:53:05.312Z,9.30
2023-01-19T20:56:11.513Z,9.45
2023-01-19T20:59:14.441Z,10.67
2023-01-19T21:02:17.663Z,8.47
2023-01-19T21:05:20.551Z,9.60
2023-01-19T21:08:23.263Z,8.52
2023-01-19T21:11:26.484Z,8.60
2023-01-19T21:14:29.438Z,8.23
2023-01-19T21:17:32.460Z,7.45
2023-01-19T21:20:34.952Z,9.13
2023-01-19T21:23:37.420Z,9.57
2023-01-19T21:26:41.763Z,9.15
2023-01-19T21:29:44.597Z,11.63
2023-01-19T21:32:47.292Z,9.25
2023-01-19T21:35:55.561Z,8.90
2023-01-19T21:39:00.900Z,7.68
2023-01-19T21:42:03.753Z,9.02
2023-01-19T21:45:08.013Z,8.65
2023-01-19T21:48:10.548Z,8.57
2023-01-19T21:51:14.177Z,9.52
2023-01-19T21:54:17.663Z,8.13
2023-01-19T21:57:20.085Z,8.52
2023-01-19T22:00:22.763Z,9.63
2023-01-19T22:03:27.351Z,8.07
2023-01-19T22:06:30.129Z,9.20
2023-01-19T22:09:36.465Z,9.45
2023-01-19T22:12:40.435Z,12.10
2023-01-19T22:15:42.934Z,7.38
2023-01-19T22:18:50.432Z,9.30
2023-01-19T22:21:52.912Z,7.93
2023-01-19T22:24:55.501Z,6.97
2023-01-19T22:27:59.373Z,7.15
2023-01-19T22:31:13.675Z,6.88
2023-01-19T22:34:17.933Z,7.72
2023-01-19T22:37:20.415Z,8.50
2023-01-19T22:40:22.844Z,7.15
2023-01-19T22:43:25.693Z,7.43
2023-01-19T22:46:30.512Z,8.90
2023-01-19T22:49:33.021Z,7.00
2023-01-19T22:52:35.422Z,7.80
2023-01-19T22:55:37.798Z,8.77
2023-01-19T22:58:40.760Z,8.83
2023-01-19T23:01:44.446Z,8.15
2023-01-19T23:04:47.047Z,7.72
2023-01-19T23:07:49.635Z,7.45
2023-01-19T23:10:52.083Z,8.17
2023-01-19T23:13:55.436Z,6.03
2023-01-19T23:16:57.857Z,8.23
2023-01-19T23:20:00.325Z,6.18
2023-01-19T23:23:02.829Z,7.50
2023-01-19T23:26:11.752Z,5.70
2023-01-19T23:29:15.485Z,6.68
2023-01-19T23:32:17.872Z,8.38
2023-01-19T23:35:20.240Z,6.33
2023-01-19T23:38:23.069Z,6.28
2023-01-19T23:41:26.312Z,5.53
2023-01-19T23:44:28.747Z,5.88
2023-01-19T23:47:32.779Z,6.40
2023-01-19T23:50:38.819Z,7.95
2023-01-19T23:53:41.692Z,7.10
2023-01-19T23:56:44.119Z,5.30
2023-01-19T23:59:46.571Z,5.60
